Gonzalo Riquelme

Recruteur en chef - O'Higgins
10 Sept 2028
Dimanche
Processus

Personnalité

Adaptabilité (15) Ambition (18) Controverse (18) Loyauté (3) Pression (12) Professionnalisme (7) Sportivité (18) Tempérament (10)

Profil

Style d'entraînement Démocratique
Diplôme Continental A
Détermination 9
Gestion des joueurs 4
Motivation 8
Discipline 10
Satisfaction professionnelle
100%
Fatigue
0%
Rôle Recruteur en chef
Salaire 45.2K p/s
Contrat 14.03.2030

Performance

Comportement Bon
Efficacité de l'entraînement
40%
Développement des joueurs
35%
Prévention des blessures
60%
Mise en place tactique
35%

Événements récents

A participé à une réunion de recrutement maintenant
A recommandé une cible de transfert maintenant
A recommandé une cible de transfert maintenant
A recommandé une cible de transfert maintenant
A participé à une réunion de recrutement maintenant
A évalué un joueur maintenant
A évalué un joueur maintenant
A évalué un joueur maintenant

Suivi en cours

284
Joueur Club Statut Capacité Confiance Observé Dernière observation Dernier vote
Ramiro Hernandes Belgrano Actif 132 / 130 40% 2 09.09.2028 -
Federico Bisanz Atlanta Actif 123 / 110 40% 2 09.09.2028 -
Matko Miljevic Racing Club Actif 128 / 124 40% 1 09.09.2028 -
Hernán López Muñoz San Jose Earthquakes Actif 141 / 130 40% 2 08.09.2028 -
Juan Hurtado Alianza Petrolera Actif 123 / 127 40% 1 08.09.2028 -
Daniel Barrea Godoy Cruz Actif 125 / 118 40% 2 07.09.2028 -
Facundo Torres Millonarios Actif 149 / 135 40% 1 07.09.2028 -
Gastón Moreyra Almirante Brown Actif 113 / 106 40% 1 06.09.2028 -
Gonzalo Plata Nacional Actif 144 / 145 40% 1 05.09.2028 -
Cristian Trujillo Deportes Tolima Actif 121 / 122 40% 1 05.09.2028 -
Alejandro Piedrahita Deportivo Pereira Actif 123 / 124 40% 1 05.09.2028 -
Tomás Pozzo Godoy Cruz Actif 124 / 121 40% 1 04.09.2028 -
Juan Manuel Zapata Envigado Actif 115 / 127 40% 1 04.09.2028 -
Isaiah Jones Luton Town Actif 142 / 138 40% 2 09.08.2028 -
Theo Córdoba Actif 140 / 123 40% 1 09.08.2028 -
Arnau Puigmal Mallorca Actif 141 / 132 40% 1 09.08.2028 -
Adrián Niño Málaga Actif 132 / 142 40% 2 07.08.2028 -
Jon Morcillo Almería Actif 133 / 143 40% 1 07.08.2028 -
Álvaro García Castellón Actif 131 / 136 40% 1 07.08.2028 -
Pablo Martínez Málaga Actif 142 / 134 40% 1 17.07.2028 -
Jon Ander Olasagasti Levante Actif 127 / 144 40% 1 28.06.2028 -
Reiner Campos San Marcos de Arica Actif 89 / 100 58% 1 19.06.2028 Approuver
Sebastián Pérez Palestino Actif 125 / 123 58% 1 07.06.2028 Approuver
Yusi Alavés Actif 147 / 148 40% 1 07.06.2028 -
Zito Luvumbo Cagliari Actif 145 / 126 40% 2 02.06.2028 -
Max Bird Birmingham Actif 129 / 125 40% 5 31.05.2028 -
Daijiro Chirino Almería Actif 125 / 142 40% 1 31.05.2028 -
Miguel Rodríguez Alavés Actif 131 / 134 40% 1 30.05.2028 -
Pablo Santiago Castellón Actif 128 / 135 40% 1 29.05.2028 -
Martim Neto Elche Actif 132 / 130 40% 1 27.05.2028 -
Lorenzo Amatucci Deportivo La Coruña Actif 139 / 147 40% 1 27.05.2028 -
Antonio Blanco Alavés Actif 158 / 137 40% 1 27.05.2028 -
Kasey McAteer Barnsley Actif 136 / 125 40% 2 25.05.2028 -
Óscar Aranda Getafe Actif 151 / 140 40% 1 25.05.2028 -
Jayden Danns Bradford City Actif 141 / 147 40% 1 24.05.2028 -
Luke McNally Bristol City Actif 147 / 129 40% 3 23.05.2028 -
Ben Gannon Doak Charlton Athletic Actif 141 / 156 40% 4 23.05.2028 -
Tyrese Campbell Sheffield United Actif 147 / 136 40% 1 21.05.2028 -
Riley McGree Middlesbrough Actif 133 / 147 40% 2 19.05.2028 -
Finn Azaz Southampton Actif 135 / 121 40% 2 18.05.2028 -
Carlos Alcaraz Stoke City Actif 156 / 150 40% 3 17.05.2028 -
Callum O'Hare Sheffield United Actif 130 / 121 40% 1 16.05.2028 -
Manuel Ugarte Leicester City Actif 161 / 156 40% 1 15.05.2028 -
Marcus Tavernier Bournemouth Actif 140 / 145 40% 3 13.05.2028 -
Shea Charles Southampton Actif 144 / 156 40% 2 12.05.2028 -
Callum Brittain Middlesbrough Actif 125 / 143 40% 1 12.05.2028 -
Tyreece Campbell Charlton Athletic Actif 140 / 115 40% 2 11.05.2028 -
Matěj Jurásek Doncaster Rovers Actif 116 / 123 40% 1 11.05.2028 -
Mark Sykes Millwall Actif 133 / 121 40% 1 10.05.2028 -
Brais Méndez RC Lens Actif 157 / 153 40% 5 09.05.2028 -
Jayden Addai Bari Actif 133 / 141 40% 1 09.05.2028 -
Sorba Thomas Stoke City Actif 134 / 134 40% 2 05.05.2028 -
Todd Cantwell Blackburn Rovers Actif 122 / 128 40% 1 05.05.2028 -
Brandon Thomas-Asante Blackpool Actif 125 / 136 40% 5 04.05.2028 -
Jaidon Anthony Derby County Actif 147 / 131 40% 2 04.05.2028 -
André Wolverhampton Actif 147 / 139 40% 2 03.05.2028 -
Yerson Mosquera Wolverhampton Actif 132 / 156 40% 1 03.05.2028 -
Welington Southampton Actif 140 / 129 40% 1 03.05.2028 -
Derry Murkin Derby County Actif 140 / 120 40% 1 01.05.2028 -
Nathan Broadhead Wrexham Actif 120 / 126 40% 1 01.05.2028 -
Ryan Sessegnon Fulham Actif 155 / 161 40% 1 25.04.2028 -
Jacques Ekomié Wrexham Actif 139 / 130 40% 1 25.04.2028 -
Demarai Gray Birmingham Actif 128 / 132 40% 1 20.04.2028 -
Sebastiano Esposito Cagliari Actif 159 / 132 40% 1 17.04.2028 -
Oladapo Afolayan Blackburn Rovers Actif 118 / 129 40% 1 17.04.2028 -
Yasin Ayari Middlesbrough Actif 140 / 148 40% 1 17.04.2028 -
Andrés Gómez Vasco da Gama Actif 150 / 142 40% 3 12.04.2028 -
Kevin Medina Mirandés Actif 135 / 118 40% 1 12.04.2028 -
Jeremy Sarmiento Middlesbrough Actif 141 / 134 40% 3 08.04.2028 -
Abdoul Ouattara Port Vale Actif 138 / 128 40% 2 06.04.2028 -
Jacob Greaves Ipswich Town Actif 137 / 131 40% 3 05.04.2028 -
Dwight McNeil Crystal Palace Actif 147 / 147 40% 2 05.04.2028 -
Adam Kaied Zamalek Actif 119 / 130 40% 2 05.04.2028 -
Juan Bezerra Zamalek Actif 129 / 122 40% 2 29.03.2028 -
Sorriso Famalicao Actif 125 / 138 40% 1 26.03.2028 -
Iker Benito Casa Pia Actif 136 / 124 40% 5 24.03.2028 -
João Carvalho Estoril Praia Actif 126 / 130 40% 1 21.03.2028 -
Paulo Henrique Vasco da Gama Actif 124 / 125 40% 2 19.03.2028 -
Cristian Medina Botafogo Actif 123 / 132 40% 1 17.03.2028 -
Majid Jahanbakhsh Rah Ahan Actif 130 / 140 40% 1 16.03.2028 -
William Osula Wrexham Actif 123 / 124 40% 1 15.03.2028 -
David Carmo Olympiacos Actif 148 / 151 40% 1 13.03.2028 -
Bernard Tekpetey Ludogorets Actif 118 / 117 40% 2 11.03.2028 -
Lautaro Guzmán MTK Budapest Actif 117 / 114 40% 2 10.03.2028 -
Nuno Moreira Vasco da Gama Actif 127 / 132 40% 1 09.03.2028 -
Samuel Edozie Southampton Actif 148 / 145 40% 1 05.03.2028 -
Bénie Traoré New York City Actif 137 / 126 40% 3 01.03.2028 -
Harry Wilson Leeds United Actif 135 / 157 40% 2 29.02.2028 -
Henry Mosquera Bragantino Actif 136 / 125 40% 1 26.02.2028 -
Luis Rodriguez Valur Actif 122 / 116 40% 2 24.02.2028 -
Marquinhos Spartak Moscow Actif 128 / 124 40% 1 21.02.2028 -
Pedro de la Vega Columbus Crew Actif 131 / 146 40% 1 20.02.2028 -
Marino Hinestroza Bahia Actif 121 / 130 40% 1 19.02.2028 -
Benjamín Rollheiser Santos Actif 132 / 125 40% 1 18.02.2028 -
Gustavo Neves Bragantino Actif 125 / 123 40% 1 18.02.2028 -
Vitinho Botafogo Actif 136 / 127 40% 1 17.02.2028 -
Lucas Assadi AIK Actif 149 / 120 40% 1 12.02.2028 -
Nicolás Garayalde Liverpool Montevideo Actif 112 / 120 40% 2 10.02.2028 -
Quinn Sullivan Philadelphia Union Actif 131 / 126 40% 1 10.02.2028 -
Facundo Colidio Vasco da Gama Actif 142 / 134 40% 1 09.02.2028 -
Felipe Mora San Luis Actif 125 / 109 55% 1 20.12.2027 -
Maximiliano Gómez Nacional Actif 137 / 119 40% 3 13.12.2027 -
Diego Hernández Aguilas Doradas Actif 112 / 124 40% 2 30.11.2027 -
Jean Carlos Pestaña Junior Actif 127 / 111 40% 1 30.11.2027 -
Julián Palacios Envigado Actif 111 / 121 40% 1 12.11.2027 -
Pablo Cardona Cortulua Actif 129 / 115 40% 1 12.11.2027 -
Dylan Lozano Aguilas Doradas Actif 116 / 117 40% 2 11.11.2027 -
Alejandro Molina Tristán Suárez Actif 107 / 109 40% 1 11.11.2027 -
Geindry Cuervo Envigado Actif 122 / 115 40% 2 08.11.2027 -
Luis Jiménez Jaguares Actif 107 / 100 40% 2 06.11.2027 -
José Caldera Deportivo Cali Actif 112 / 115 40% 1 06.11.2027 -
Jan Carlos Ángulo Deportes Tolima Actif 122 / 127 40% 1 05.11.2027 -
Camilo Martinez Cortulua Actif 131 / 118 40% 1 03.11.2027 -
Ignacio Vázquez Platense Actif 126 / 120 40% 2 02.11.2027 -
Mateo Garavito Deportivo Pasto Actif 121 / 113 40% 1 01.11.2027 -
Yílmar Velásquez Santa Fe Actif 125 / 124 40% 1 31.10.2027 -
Emiliano Álvarez Progreso Actif 122 / 124 40% 1 31.10.2027 -
Bruno Leyes Godoy Cruz Actif 131 / 121 40% 1 30.10.2027 -
Cristian Graciano Deportivo Pasto Actif 105 / 115 40% 1 30.10.2027 -
Brian Nievas Chaco For Ever Actif 98 / 100 40% 1 21.10.2027 -
Yeferson Rodallega Envigado Actif 116 / 116 40% 1 21.10.2027 -
Jermein Peña Junior Actif 115 / 130 40% 1 05.10.2027 -
Alan García Wanderers Actif 114 / 105 40% 1 04.10.2027 -
Emanuel Coronel Rosario Central Actif 126 / 122 40% 1 04.10.2027 -
Steven Pabón Trujillanos Actif 96 / 113 40% 1 06.09.2027 -
Ben Nelson Leicester City Actif 132 / 137 40% 1 08.08.2027 -
Joel Bagan Cardiff City Actif 113 / 109 40% 1 08.08.2027 -
Hamza Choudhury Leicester City Actif 111 / 132 40% 4 06.08.2027 -
Alfie Jones Middlesbrough Actif 132 / 116 40% 2 05.08.2027 -
Japhet Tanganga Sheffield United Actif 155 / 147 40% 1 05.08.2027 -
Lewis Gibson Preston Actif 118 / 112 40% 1 21.06.2027 -
Romelle Donovan Brentford Actif 129 / 137 40% 4 04.06.2027 -
Riley Owen Stevenage Actif 104 / 119 40% 1 04.06.2027 -
Lander Astiazarán Real Sociedad Actif 92 / 126 40% 2 01.06.2027 -
Mateus Mané Burnley Actif 152 / 138 40% 2 01.06.2027 -
Sampson Dweh Mallorca Actif 133 / 134 66% 1 01.06.2027 Approuver
Bazoumana Touré Newcastle United Actif 135 / 130 40% 3 30.05.2027 -
Michael Baidoo Plymouth Argyle Actif 133 / 140 40% 1 28.05.2027 -
Connor Ogilvie Grimsby Town Actif 94 / 126 40% 2 27.05.2027 -
Thierry Rendall Correia Venezia Perdu 157 / 136 40% 2 26.05.2027 -
Daniel Awuni Aduana Stars Actif 73 / 108 40% 2 26.05.2027 -
Dara O'Shea Ipswich Town Actif 153 / 128 40% 6 23.05.2027 -
Max Johnston Derby County Actif 109 / 130 40% 4 22.05.2027 -
Alfie Devine Preston Actif 111 / 119 40% 1 21.05.2027 -
Ferland Mendy Real Madrid Actif 156 / 143 40% 5 20.05.2027 -
Oscar Schwartau Norwich City Actif 121 / 128 40% 3 20.05.2027 -
Victor Hernandez Santa Fe Actif 110 / 116 40% 1 20.05.2027 -
Mattia Rutigliano Pro Vercelli Actif 109 / 98 40% 2 19.05.2027 -
Caleb Yirenkyi Coventry City Actif 146 / 141 40% 3 18.05.2027 -
Brooke Norton-Cuffy Hull City Actif 122 / 144 40% 3 17.05.2027 -
Leo Castledine Middlesbrough Actif 123 / 142 40% 2 15.05.2027 -
Jonathan Varane Queens Park Rangers Actif 125 / 112 40% 2 15.05.2027 -
Mohamadou Kanté Crawley Town Actif 129 / 119 40% 2 15.05.2027 -
Valentino Acuña Newell's Old Boys Actif 116 / 112 40% 1 14.05.2027 -
Alfie Doughty Millwall Actif 110 / 121 40% 1 13.05.2027 -
Atsuki Ito Bolton Wanderers Actif 132 / 113 40% 1 12.05.2027 -
Borna Knezović Casarano Actif 118 / 108 40% 1 10.05.2027 -
Azor Matusiwa Ipswich Town Actif 132 / 143 40% 1 09.05.2027 -
Williams Wonah AS Police Actif 76 / 73 40% 1 07.05.2027 -
Jay Matete Milton Keynes Dons Actif 122 / 113 40% 1 05.05.2027 -
Harry Clarke Preston Actif 144 / 128 40% 3 03.05.2027 -
Bosun Lawal Stoke City Actif 142 / 138 40% 2 02.05.2027 -
Aidan Morris Middlesbrough Actif 141 / 123 40% 1 02.05.2027 -
Toti Wolverhampton Actif 132 / 122 40% 2 01.05.2027 -
Lewis Bate Stockport County Actif 117 / 130 40% 4 30.04.2027 -
Joe Tomlinson Milton Keynes Dons Actif 96 / 89 40% 1 29.04.2027 -
Sondre Tronstad Blackburn Rovers Actif 106 / 116 40% 1 26.04.2027 -
Georgie Gent Barnsley Actif 97 / 100 40% 1 26.04.2027 -
Ryan Oné Sheffield United Actif 116 / 129 40% 1 24.04.2027 -
Kristoffer Lund Birmingham Actif 128 / 128 40% 1 24.04.2027 -
Florentino Luís Ipswich Town Actif 141 / 145 40% 5 18.04.2027 -
Oliver Skipp Leicester City Actif 119 / 116 40% 1 15.04.2027 -
Lucas Da Cunha Como Actif 154 / 157 40% 3 13.04.2027 -
Martim Cunha Porto Actif 83 / 120 40% 1 12.04.2027 -
Pablo García Gijón Actif 122 / 105 40% 3 07.04.2027 -
Matthew Targett Hull City Actif 125 / 119 40% 1 06.04.2027 -
Lewis O'Brien Wrexham Actif 124 / 131 40% 1 31.03.2027 -
Jack Currie Oxford United Actif 141 / 122 40% 2 29.03.2027 -
Marc Bola Watford Actif 131 / 122 40% 2 25.03.2027 -
Kane Wilson Milton Keynes Dons Actif 117 / 100 40% 1 25.03.2027 -
Adam Randell Bristol City Actif 124 / 140 40% 1 24.03.2027 -
Nicolas Madsen Queens Park Rangers Actif 116 / 121 40% 1 24.03.2027 -
James Dornelly Peterborough United Actif 92 / 95 40% 2 21.03.2027 -
Jordan Lotomba Bloemfontein Celtic Actif 119 / 110 40% 3 18.03.2027 -
Tom Pearce Chesterfield Actif 95 / 109 40% 1 15.03.2027 -
Will Hughes Bloemfontein Celtic Actif 153 / 126 40% 4 11.03.2027 -
Brooklyn Poggenpoel Maritzburg United Actif 109 / 117 40% 2 08.03.2027 -
Yhormar Hurtado Lechia Actif 128 / 112 40% 1 04.03.2027 -
Dennis Cirkin Queens Park Rangers Actif 123 / 134 40% 1 04.03.2027 -
Hidemasa Morita Hull City Actif 129 / 143 40% 2 28.02.2027 -
Tariq Lamptey Queens Park Rangers Actif 141 / 146 40% 1 28.02.2027 -
Terry Devlin Portsmouth Actif 102 / 116 40% 1 26.02.2027 -
Daniel Harvie Wycombe Wanderers Actif 126 / 114 40% 2 22.02.2027 -
Veljko Radosavljević Cukaricki Actif 98 / 92 40% 1 15.02.2027 -
Martin Gjorgievski Zbrojovka Brno Actif 122 / 102 40% 1 14.02.2027 -
Pavel Pelevin Spartak Moscow Actif 66 / 93 40% 1 10.02.2027 -
Davide Calabria Panathinaikos Actif 156 / 119 40% 1 07.02.2027 -
Jay McGrath Doncaster Rovers Actif 115 / 94 40% 1 05.02.2027 -
Marcus McGuane Huddersfield Town Actif 115 / 105 40% 1 04.02.2027 -
Lloyd Jones Charlton Athletic Actif 128 / 117 40% 2 01.02.2027 -
Fawaaz Basadien Mamelodi Sundowns Actif 103 / 131 40% 1 01.02.2027 -
Lautaro Vargas Unión de Santa Fe Actif 129 / 125 40% 1 17.01.2027 -
José Bernal Ethnikos Achnas Actif 110 / 103 40% 2 15.01.2027 -
Cian Ashford Cardiff City Actif 109 / 137 40% 2 11.01.2027 -
Othmane Maamma Watford Actif 138 / 142 40% 1 11.01.2027 -
Maicon Levski Actif 114 / 112 40% 1 11.01.2027 -
Ignacio Rodríguez Racing Club Actif 128 / 131 40% 1 11.01.2027 -
Daniel Kyerewaa Reading Actif 94 / 117 40% 1 05.01.2027 -
Juan Bisanz Huracán Actif 121 / 124 40% 1 05.01.2027 -
Pelle Mattsson Norwich City Actif 137 / 138 40% 1 05.01.2027 -
Armstrong Oko-Flex Levski Actif 112 / 126 40% 3 01.01.2027 -
Petar Stanić Ludogorets Actif 121 / 142 40% 2 01.01.2027 -
Alex Vigo Independiente Rivadavia Actif 114 / 108 40% 1 01.01.2027 -
Job Ochieng Real Sociedad Actif 86 / 119 40% 1 29.12.2026 -
Andre Dozzell Bradford City Actif 102 / 111 40% 1 29.12.2026 -
Nathan Moriah-Welsh Mansfield Town Actif 105 / 99 40% 1 28.12.2026 -
Thomas Carrique Andorra Actif 113 / 105 40% 2 26.12.2026 -
Pedro Ramírez Deportivo Riestra Actif 108 / 125 40% 1 26.12.2026 -
Ekain Orobengoa Real Sociedad Actif 113 / 90 40% 1 24.12.2026 -
Matías Fernández Independiente Rivadavia Actif 123 / 112 40% 2 23.12.2026 -
Rubens Dinamo Moscow Actif 111 / 139 40% 1 14.12.2026 -
Alex Luna Instituto Actif 118 / 125 40% 1 01.12.2026 -
Jack McGlynn Stoke City Actif 147 / 132 40% 1 01.12.2026 -
Nicolás Cordero Aldosivi Actif 123 / 107 40% 2 29.11.2026 -
Joaquín Gho Argentinos Juniors Actif 127 / 115 40% 1 27.11.2026 -
Antony Alonso Deportivo Riestra Actif 117 / 128 40% 1 27.11.2026 -
Tomás Fernández Aldosivi Actif 106 / 111 40% 1 26.11.2026 -
Esteban da Silva Racing Actif 125 / 107 40% 1 20.11.2026 -
Justo Giani Umraniyespor Actif 139 / 109 40% 2 19.11.2026 -
Leandro Suhr Boston River Actif 116 / 110 40% 1 16.11.2026 -
Joaquín Zeballos Wanderers Actif 99 / 114 40% 1 16.11.2026 -
Gonzalo Carneiro Sparta Prague Actif 106 / 119 40% 3 13.11.2026 -
Richard Koné Queens Park Rangers Actif 115 / 124 40% 1 13.11.2026 -
Assad Al Hamlawi Universitatea Craiova Actif 107 / 102 40% 2 07.11.2026 -
Mariano Bracamonte Deportivo Riestra Actif 112 / 107 40% 4 07.11.2026 -
Alexey Miranchuk Atlanta United FC Actif 155 / 148 40% 7 05.11.2026 -
Josh Sargent Toronto FC Actif 121 / 127 40% 1 02.11.2026 Plus d'infos
Marcelo Allende Mamelodi Sundowns Actif 110 / 147 40% 1 29.10.2026 -
Matej Trusa DAC Dunajska Streda Actif 103 / 128 40% 1 26.10.2026 -
Talles Magno New York City Actif 138 / 138 40% 2 24.10.2026 -
Nicolás Sosa Racing Actif 124 / 106 40% 2 24.10.2026 -
Alexander Aravena Portland Timbers Actif 127 / 137 40% 1 23.10.2026 -
Juan Pablo Gallego Fehervar Actif 110 / 102 40% 1 23.10.2026 -
Myrto Uzuni Austin FC Actif 139 / 129 40% 2 21.10.2026 -
Eric Ramírez Ankaragucu Actif 96 / 95 40% 2 21.10.2026 -
Jackson Muleka Konyaspor Actif 127 / 137 40% 1 19.10.2026 -
Dominik Marczuk Real Salt Lake Actif 103 / 103 40% 1 18.10.2026 -
Max Fenger Helsingborg Actif 124 / 114 40% 1 15.10.2026 -
Marcelo Torres Gimnasia La Plata Actif 129 / 115 40% 4 12.10.2026 -
Callum Robinson Poltava Actif 128 / 106 40% 2 12.10.2026 -
Germán Berterame Inter Miami CF Actif 145 / 127 40% 3 11.10.2026 -
Cheikh Sabaly Vancouver Whitecaps Actif 111 / 127 40% 5 09.10.2026 -
Gaspar Duarte Rosario Central Actif 116 / 118 40% 1 05.10.2026 -
Juan Manuel Sanabria Real Salt Lake Actif 124 / 118 40% 1 05.10.2026 -
Federico Martínez MFK Ruzomberok Actif 127 / 110 40% 3 29.09.2026 -
Yorbe Vertessen Red Bull Salzburg Actif 127 / 122 40% 1 29.09.2026 -
Dániel Gazdag New England Revolution Actif 137 / 133 40% 1 27.09.2026 -
Indiana Vassilev Philadelphia Union Actif 113 / 113 40% 1 24.09.2026 -
Jordan Morris Seattle Sounders Actif 118 / 126 40% 2 21.09.2026 -
João Klauss LA Galaxy Actif 135 / 128 40% 1 21.09.2026 -
Victor Olatunji Real Salt Lake Actif 121 / 127 40% 1 13.09.2026 -
Rodrigo Mosqueira Stjarnan Actif 92 / 116 40% 1 09.09.2026 -
Jonathan Cañete Portuguesa Actif 124 / 114 40% 2 08.09.2026 -
David Ayala Inter Miami CF Actif 115 / 112 40% 1 08.09.2026 -
Morgan Guilavogui Real Salt Lake Actif 130 / 128 40% 1 06.09.2026 -
Kelvin Yeboah Minnesota United FC Actif 126 / 131 40% 1 03.09.2026 -
Lewis Morgan Toronto FC Actif 133 / 136 40% 2 29.08.2026 -
Marcelo Fernández Libertad Actif 100 / 114 40% 1 26.08.2026 -
Luis Iberico Sporting Cristal Actif 115 / 103 40% 1 26.08.2026 -
Pep Biel Charlotte Football Club Actif 125 / 139 40% 1 24.08.2026 -
Walter González Sportivo Luqueno Actif 125 / 123 40% 1 24.08.2026 -
David Lemos Hammarby Actif 126 / 116 40% 1 22.08.2026 -
Brandon Vázquez Austin FC Actif 114 / 108 40% 2 18.08.2026 -
Juan Romero Olimpia Actif 113 / 127 40% 1 17.08.2026 -
Adalberto Peñaranda Deportivo Tachira Actif 101 / 111 40% 1 08.08.2026 -
Francisco Galván Deportivo Municipal Actif 103 / 98 40% 1 07.08.2026 -
Carlos Faya Deportivo La Guaira Actif 115 / 119 40% 1 06.08.2026 -
Nahuel Brunet Godoy Cruz Actif 99 / 120 40% 1 06.08.2026 -
Eryc Castillo Alianza Lima Actif 121 / 112 40% 1 06.08.2026 -
Iván Maggi Sportivo Luqueno Actif 105 / 107 40% 1 06.08.2026 -
Richard Celis Zamora Actif 106 / 113 40% 1 03.08.2026 -
Cristhian Paredes Cerro Porteno Actif 111 / 104 40% 1 03.08.2026 -
Matías Melluso Gimnasia La Plata Actif 121 / 115 40% 1 03.08.2026 -
Gastón Pereiro Juventud Actif 118 / 113 40% 1 01.08.2026 -